Time;durP1;ratioP1;P1;durP2;ratioP2;P2;SDS_P1;SDS_P2;PMS_P1;PMS_P2;Temp;Humidity;BMP_temperature;BMP_pressure;BME280_temperature;BME280_humidity;BME280_pressure;Samples;Min_cycle;Max_cycle;Signal;HPM_P1;HPM_P2
2021/04/02 00:00:53;;;;;;;10.88;8.18;;;;;;;24.33;34.79;98505.56;1793035;78;21668;-13
2021/04/02 00:03:23;;;;;;;14.78;8.68;;;;;;;24.34;34.62;98510.74;1802420;78;21210;-13
2021/04/02 00:05:51;;;;;;;14.15;8.80;;;;;;;24.36;34.88;98512.78;1763982;78;21201;-14
2021/04/02 00:08:22;;;;;;;11.68;8.43;;;;;;;24.38;34.65;98509.42;1814964;78;21181;-13
2021/04/02 00:10:57;;;;;;;11.20;7.75;;;;;;;24.41;34.72;98507.75;1812529;78;21253;-13
2021/04/02 00:13:42;;;;;;;14.13;8.33;;;;;;;24.42;34.57;98509.41;1805337;78;21162;-14
2021/04/02 00:16:12;;;;;;;15.28;8.23;;;;;;;24.44;34.57;98506.08;1805606;78;21197;-13
2021/04/02 00:18:41;;;;;;;12.82;8.28;;;;;;;24.45;34.67;98503.70;1801230;78;21768;-13
2021/04/02 00:21:10;;;;;;;13.80;8.63;;;;;;;24.48;34.67;98495.31;1755599;78;21626;-13
2021/04/02 00:23:38;;;;;;;11.48;7.85;;;;;;;24.52;34.66;98494.98;1785829;78;21147;-16
2021/04/02 00:26:14;;;;;;;13.83;8.60;;;;;;;24.54;34.39;98493.79;1785763;78;21139;-14
2021/04/02 00:28:42;;;;;;;10.60;7.80;;;;;;;24.56;34.22;98474.83;1780326;80;21208;-13
2021/04/02 00:31:09;;;;;;;12.18;7.90;;;;;;;24.59;34.00;98485.26;1786175;78;21230;-16
2021/04/02 00:33:36;;;;;;;11.43;7.47;;;;;;;24.59;33.89;98473.16;1787172;78;21154;-13
2021/04/02 00:36:05;;;;;;;10.13;7.45;;;;;;;24.60;33.90;98459.55;1802079;77;21177;-13
2021/04/02 00:38:32;;;;;;;12.28;7.87;;;;;;;24.61;33.96;98450.48;1792767;77;21685;-14
2021/04/02 00:41:06;;;;;;;10.88;7.83;;;;;;;24.65;34.05;98432.16;1788445;78;21629;-14
2021/04/02 00:43:38;;;;;;;10.08;7.37;;;;;;;24.68;34.05;98421.55;1754798;78;22027;-14
2021/04/02 00:46:08;;;;;;;10.90;7.50;;;;;;;24.72;34.00;98426.42;1788959;78;21127;-15
2021/04/02 00:48:43;;;;;;;9.33;7.13;;;;;;;24.75;34.11;98416.67;1814914;78;21223;-14
2021/04/02 00:51:27;;;;;;;12.23;8.20;;;;;;;24.80;34.11;98415.65;1740092;81;21165;-14
2021/04/02 00:53:55;;;;;;;10.00;7.70;;;;;;;24.83;33.84;98419.34;1748431;81;21215;-14
2021/04/02 00:56:24;;;;;;;9.50;7.58;;;;;;;24.88;33.71;98426.05;1735205;81;21124;-14
2021/04/02 00:58:51;;;;;;;10.80;7.37;;;;;;;24.89;33.59;98415.63;1747986;80;21173;-14
2021/04/02 01:01:18;;;;;;;10.32;7.65;;;;;;;24.90;33.74;98412.77;1807412;77;21201;-14
2021/04/02 01:03:47;;;;;;;9.45;6.75;;;;;;;24.93;33.54;98415.61;1761638;78;21150;-14
2021/04/02 01:06:19;;;;;;;9.43;7.58;;;;;;;24.94;33.73;98403.84;1780376;78;21259;-14
2021/04/02 01:08:47;;;;;;;9.78;7.40;;;;;;;24.96;33.60;98404.51;1788272;79;21140;-15
2021/04/02 01:11:21;;;;;;;10.48;7.40;;;;;;;24.97;33.58;98393.58;1788424;79;21180;-14
2021/04/02 01:13:52;;;;;;;9.53;7.33;;;;;;;24.99;33.50;98393.41;1780673;79;21471;-14
2021/04/02 01:16:27;;;;;;;9.65;6.80;;;;;;;25.00;33.45;98396.44;1792006;78;21157;-14
2021/04/02 01:19:08;;;;;;;;;;;;;;;25.00;33.56;98394.58;1798423;77;22123;-17
2021/04/02 01:21:54;;;;;;;9.70;6.87;;;;;;;25.02;33.58;98394.41;1794730;77;20302;-14
2021/04/02 01:24:47;;;;;;;7.58;6.78;;;;;;;25.06;33.52;98397.07;1787983;77;21121;-15
2021/04/02 01:27:52;;;;;;;10.95;7.25;;;;;;;25.08;33.45;98407.67;1794976;77;21175;-17
2021/04/02 01:30:19;;;;;;;9.63;7.17;;;;;;;25.07;33.29;98406.84;1797183;77;22251;-15
2021/04/02 01:32:48;;;;;;;10.90;6.85;;;;;;;25.08;33.16;98411.70;1798761;77;21387;-15
2021/04/02 01:35:29;;;;;;;9.25;6.87;;;;;;;25.05;33.37;98399.45;1754917;79;21251;-15
2021/04/02 01:38:18;;;;;;;11.08;6.87;;;;;;;25.06;33.43;98402.45;1794947;77;22116;-15
2021/04/02 01:40:48;;;;;;;8.60;6.70;;;;;;;25.04;33.31;98394.55;1752200;79;21179;-15
2021/04/02 01:43:24;;;;;;;9.18;6.92;;;;;;;25.04;33.31;98382.95;1737644;79;21121;-16
2021/04/02 01:45:52;;;;;;;10.18;7.15;;;;;;;25.06;33.27;98387.66;1754045;79;21199;-14
2021/04/02 01:48:21;;;;;;;9.70;7.08;;;;;;;25.06;33.40;98382.79;1772206;77;21212;-14
2021/04/02 01:50:50;;;;;;;11.50;7.03;;;;;;;25.04;33.18;98385.13;1763558;79;21176;-14
2021/04/02 01:53:20;;;;;;;9.35;6.72;;;;;;;25.04;33.11;98377.58;1770288;79;21168;-14
2021/04/02 01:55:51;;;;;;;13.00;8.33;;;;;;;25.02;33.22;98376.41;1803767;78;21089;-14
2021/04/02 01:58:18;;;;;;;46.18;24.70;;;;;;;25.04;32.85;98380.27;1785430;77;21185;-15
2021/04/02 02:00:50;;;;;;;30.70;16.57;;;;;;;24.98;32.77;98379.60;1741100;79;21155;-13
2021/04/02 02:03:20;;;;;;;24.63;14.87;;;;;;;24.94;32.98;98374.25;1766089;78;21564;-12
2021/04/02 02:05:53;;;;;;;20.37;13.22;;;;;;;24.93;33.03;98372.08;1792701;78;21180;-12
2021/04/02 02:08:23;;;;;;;20.82;13.10;;;;;;;24.93;32.89;98376.59;1793730;78;21129;-14
2021/04/02 02:11:15;;;;;;;21.20;12.20;;;;;;;24.93;32.98;98364.48;1788733;79;21199;-14
2021/04/02 02:13:52;;;;;;;21.85;11.85;;;;;;;24.93;32.90;98367.17;1790315;78;21141;-15
2021/04/02 02:16:22;;;;;;;16.23;11.78;;;;;;;24.92;32.82;98366.86;1786322;78;21148;-14
2021/04/02 02:18:54;;;;;;;15.78;11.33;;;;;;;24.89;32.92;98357.79;1756301;78;21259;-14
2021/04/02 02:21:23;;;;;;;16.48;11.33;;;;;;;24.88;32.95;98355.61;1815515;79;21678;-13
2021/04/02 02:23:53;;;;;;;12.25;10.43;;;;;;;24.87;32.83;98349.06;1806506;78;21177;-15
2021/04/02 02:26:27;;;;;;;20.97;10.25;;;;;;;24.84;32.91;98347.02;1813034;78;21132;-13
2021/04/02 02:28:56;;;;;;;14.93;10.55;;;;;;;24.83;32.87;98353.44;1776292;79;21176;-14
2021/04/02 02:31:24;;;;;;;13.68;9.85;;;;;;;24.81;32.93;98355.47;1716752;81;21223;-16
2021/04/02 02:33:52;;;;;;;14.58;9.45;;;;;;;24.78;33.05;98353.11;1757661;79;21170;-14
2021/04/02 02:36:34;;;;;;;15.15;9.65;;;;;;;24.80;32.97;98352.43;1832027;76;23131;-13
2021/04/02 02:39:08;;;;;;;17.82;9.40;;;;;;;24.75;33.04;98348.08;1783563;79;20987;-12
2021/04/02 02:41:39;;;;;;;15.53;8.48;;;;;;;24.73;33.00;98343.38;1767676;78;21901;-13
2021/04/02 02:44:07;;;;;;;11.18;8.38;;;;;;;24.72;33.01;98340.34;1749723;79;21212;-14
2021/04/02 02:46:35;;;;;;;15.85;8.68;;;;;;;24.69;32.98;98342.03;1778678;78;21078;-14
2021/04/02 02:49:16;;;;;;;10.55;8.10;;;;;;;24.66;32.92;98345.05;1790609;79;21058;-15
2021/04/02 02:51:46;;;;;;;11.50;8.15;;;;;;;24.64;33.03;98349.27;1777780;78;21145;-14
2021/04/02 02:54:18;;;;;;;11.00;8.43;;;;;;;24.62;33.08;98355.84;1763188;80;21223;-14
2021/04/02 02:56:49;;;;;;;12.95;7.58;;;;;;;24.59;33.23;98350.80;1766057;79;20999;-13
2021/04/02 02:59:20;;;;;;;9.30;7.65;;;;;;;24.56;33.24;98357.38;1746684;80;21165;-13
2021/04/02 03:01:49;;;;;;;10.53;7.78;;;;;;;24.56;33.31;98368.61;1794617;79;21133;-14
2021/04/02 03:04:19;;;;;;;10.63;7.70;;;;;;;24.54;33.29;98361.20;1729350;80;21105;-15
2021/04/02 03:06:50;;;;;;;12.05;8.20;;;;;;;24.51;33.22;98361.05;1779796;78;21121;-13
2021/04/02 03:09:17;;;;;;;9.00;7.60;;;;;;;24.47;33.39;98361.87;1771693;79;21184;-13
2021/04/02 03:11:49;;;;;;;8.83;7.33;;;;;;;24.46;33.40;98372.80;1798421;79;21122;-14
2021/04/02 03:14:19;;;;;;;10.18;7.50;;;;;;;24.44;33.38;98370.78;1785085;77;21184;-15
2021/04/02 03:16:51;;;;;;;11.40;8.45;;;;;;;24.41;33.36;98371.98;1744742;79;21192;-14
2021/04/02 03:19:22;;;;;;;11.08;8.30;;;;;;;24.39;33.37;98357.84;1752390;80;21678;-13
2021/04/02 03:21:53;;;;;;;11.73;8.63;;;;;;;24.36;33.33;98354.18;1793137;78;21130;-14
2021/04/02 03:24:23;;;;;;;9.35;7.53;;;;;;;24.33;33.30;98357.20;1800875;78;21172;-13
2021/04/02 03:26:54;;;;;;;8.53;7.35;;;;;;;24.30;33.28;98360.22;1757187;79;21148;-13
2021/04/02 03:29:24;;;;;;;11.00;7.53;;;;;;;24.27;33.26;98367.27;1782051;78;21184;-14
2021/04/02 03:32:00;;;;;;;10.60;8.03;;;;;;;24.23;33.22;98356.54;1726151;80;21244;-13
2021/04/02 03:34:28;;;;;;;10.28;7.75;;;;;;;24.20;33.30;98367.63;1800942;78;21188;-13
2021/04/02 03:36:56;;;;;;;11.68;8.63;;;;;;;24.16;33.31;98364.91;1773194;79;21204;-12
2021/04/02 03:39:30;;;;;;;13.40;9.80;;;;;;;24.11;33.30;98352.84;1784908;79;21188;-12
2021/04/02 03:42:00;;;;;;;10.75;8.83;;;;;;;24.08;33.33;98359.89;1770799;79;21121;-12
2021/04/02 03:44:32;;;;;;;12.18;8.83;;;;;;;24.05;33.37;98358.88;1771703;78;22265;-15
2021/04/02 03:47:02;;;;;;;11.75;8.63;;;;;;;24.03;33.39;98355.52;1735547;79;21513;-13
2021/04/02 03:49:33;;;;;;;11.48;8.58;;;;;;;24.00;33.48;98358.54;1743573;79;21074;-24
2021/04/02 03:52:14;;;;;;;15.03;9.55;;;;;;;23.98;33.53;98363.25;1792551;79;21500;-13
2021/04/02 03:54:42;;;;;;;14.35;10.45;;;;;;;23.95;33.61;98356.86;1777140;79;21149;-13
2021/04/02 03:57:12;;;;;;;14.65;10.35;;;;;;;23.92;33.73;98359.88;1775799;79;21350;-13
2021/04/02 03:59:41;;;;;;;16.45;11.10;;;;;;;23.89;33.63;98355.69;1777040;79;21176;-13
2021/04/02 04:02:09;;;;;;;16.10;10.32;;;;;;;23.86;33.72;98353.33;1739281;79;21199;-13
2021/04/02 04:04:38;;;;;;;27.87;11.08;;;;;;;23.86;33.75;98353.84;1747153;79;21176;-17
2021/04/02 04:07:08;;;;;;;16.95;11.08;;;;;;;23.83;33.79;98348.80;1776934;79;21165;-14
2021/04/02 04:09:42;;;;;;;13.48;9.93;;;;;;;23.79;33.74;98341.55;1785551;79;21565;-14
2021/04/02 04:12:12;;;;;;;14.83;10.40;;;;;;;23.77;33.74;98344.05;1779440;79;21421;-15
2021/04/02 04:15:01;;;;;;;12.28;9.43;;;;;;;23.77;33.73;98340.89;1831125;77;23471;-19
2021/04/02 04:17:31;;;;;;;13.60;9.58;;;;;;;23.70;33.67;98347.91;1746476;79;21600;-16
2021/04/02 04:20:21;;;;;;;13.00;9.85;;;;;;;23.70;33.69;98354.62;1818985;75;24855;-12
2021/04/02 04:22:50;;;;;;;14.80;9.60;;;;;;;23.63;33.79;98344.21;1773723;78;21200;-15
2021/04/02 04:25:24;;;;;;;17.45;9.13;;;;;;;23.62;33.74;98340.70;1798511;78;21258;-12
2021/04/02 04:27:53;;;;;;;14.77;9.20;;;;;;;23.61;33.83;98340.86;1750316;80;21120;-15
2021/04/02 04:30:22;;;;;;;13.70;9.05;;;;;;;23.58;33.79;98336.64;1771272;79;21188;-13
2021/04/02 04:32:49;;;;;;;13.88;9.63;;;;;;;23.57;33.76;98337.66;1783795;79;21113;-13
2021/04/02 04:35:18;;;;;;;15.63;9.70;;;;;;;23.55;33.65;98330.25;1776690;79;21809;-13
2021/04/02 04:37:46;;;;;;;17.27;10.00;;;;;;;23.54;33.64;98339.33;1753097;79;21152;-15
2021/04/02 04:40:15;;;;;;;12.58;9.43;;;;;;;23.53;33.60;98319.67;1785720;78;21124;-21
2021/04/02 04:42:45;;;;;;;15.20;10.43;;;;;;;23.52;33.67;98313.16;1752780;79;21097;-14
2021/04/02 04:45:20;;;;;;;15.15;10.48;;;;;;;23.51;33.73;98319.01;1781740;79;22184;-14
2021/04/02 04:47:48;;;;;;;15.93;10.05;;;;;;;23.50;33.68;98322.72;1754433;79;21161;-13
2021/04/02 04:50:16;;;;;;;14.55;9.88;;;;;;;23.50;33.78;98321.86;1790950;79;21200;-20
2021/04/02 04:53:16;;;;;;;18.23;10.48;;;;;;;23.47;33.76;98317.67;1788610;78;21164;-13
2021/04/02 04:55:44;;;;;;;19.77;11.33;;;;;;;23.47;33.76;98320.84;1759738;79;21517;-13
2021/04/02 04:58:16;;;;;;;18.27;11.28;;;;;;;23.42;33.48;98321.36;1790422;78;21203;-12
2021/04/02 05:00:45;;;;;;;19.65;10.43;;;;;;;23.36;33.55;98332.23;1757313;80;21750;-13
2021/04/02 05:03:23;;;;;;;16.62;10.43;;;;;;;23.32;33.48;98344.30;1758513;80;21204;-15
2021/04/02 05:05:55;;;;;;;14.68;10.10;;;;;;;23.27;33.41;98349.33;1780160;78;21117;-14
2021/04/02 05:08:31;;;;;;;16.12;10.08;;;;;;;23.22;33.77;98353.00;1805656;78;21161;-13
2021/04/02 05:10:58;;;;;;;15.63;10.70;;;;;;;23.22;33.83;98350.80;1752566;80;21136;-13
2021/04/02 05:13:28;;;;;;;16.48;9.23;;;;;;;23.23;33.89;98345.27;1793930;77;21179;-16
2021/04/02 05:15:56;;;;;;;10.55;8.33;;;;;;;23.23;34.09;98338.56;1793619;78;22011;-13
2021/04/02 05:18:24;;;;;;;11.60;8.50;;;;;;;23.24;34.47;98334.89;1765385;78;21168;-13
2021/04/02 05:20:53;;;;;;;12.93;8.15;;;;;;;23.25;34.72;98344.63;1782067;79;21152;-13
2021/04/02 05:23:20;;;;;;;10.05;7.90;;;;;;;23.26;34.85;98343.61;1774312;79;21755;-13
2021/04/02 05:25:48;;;;;;;15.50;8.65;;;;;;;23.26;34.89;98335.56;1779007;79;21622;-15
2021/04/02 05:28:15;;;;;;;15.35;7.97;;;;;;;23.26;34.86;98334.73;1785527;79;21460;-16
2021/04/02 05:30:43;;;;;;;13.58;8.88;;;;;;;23.26;34.93;98336.90;1783997;78;21151;-13
2021/04/02 05:33:10;;;;;;;11.12;7.70;;;;;;;23.25;34.97;98341.95;1768481;80;21145;-13
2021/04/02 05:35:38;;;;;;;13.88;8.20;;;;;;;23.25;34.95;98333.89;1777817;78;21164;-13
2021/04/02 05:38:05;;;;;;;17.62;8.90;;;;;;;23.25;35.30;98335.23;1770569;78;21156;-12
2021/04/02 05:40:36;;;;;;;21.87;8.28;;;;;;;23.25;35.26;98340.61;1729192;80;21671;-13
2021/04/02 05:43:27;;;;;;;21.82;8.50;;;;;;;23.19;35.09;98338.05;1777177;78;21133;-13
2021/04/02 05:45:57;;;;;;;26.70;9.28;;;;;;;23.12;35.88;98333.52;1738836;81;21186;-13
2021/04/02 05:48:24;;;;;;;24.23;9.30;;;;;;;23.07;35.88;98325.94;1745185;79;21185;-16
2021/04/02 05:50:54;;;;;;;29.30;10.82;;;;;;;23.02;35.81;98321.53;1769166;79;21153;-13
2021/04/02 05:53:21;;;;;;;23.52;10.53;;;;;;;22.94;35.09;98296.84;1771314;79;21282;-13
2021/04/02 05:55:52;;;;;;;28.32;10.35;;;;;;;22.82;35.09;98269.99;1763717;79;21599;-26
2021/04/02 05:58:24;;;;;;;21.02;10.98;;;;;;;22.62;35.00;98243.42;1742205;79;21180;-17
2021/04/02 06:00:56;;;;;;;21.07;10.55;;;;;;;22.20;35.86;98212.05;1733741;80;21153;-17
2021/04/02 06:03:26;;;;;;;27.10;14.50;;;;;;;21.85;36.03;98224.54;1720016;81;21191;-16
2021/04/02 06:05:54;;;;;;;28.57;14.15;;;;;;;21.54;36.25;98246.07;1736992;79;21222;-15
2021/04/02 06:08:24;;;;;;;22.48;13.18;;;;;;;21.27;36.97;98241.11;1769383;78;21140;-17
2021/04/02 06:10:56;;;;;;;25.48;12.53;;;;;;;21.18;37.33;98252.70;1778776;78;21223;-16
2021/04/02 06:13:35;;;;;;;18.12;11.65;;;;;;;21.15;37.66;98268.08;1759939;78;21755;-15
2021/04/02 06:16:06;;;;;;;20.68;10.98;;;;;;;21.26;38.09;98288.91;1760843;78;21137;-18
2021/04/02 06:18:39;;;;;;;23.85;11.25;;;;;;;21.43;38.34;98294.75;1753927;78;21242;-14
2021/04/02 06:21:09;;;;;;;21.52;10.93;;;;;;;21.61;38.48;98287.27;1802412;78;21137;-14
2021/04/02 06:23:38;;;;;;;21.42;10.65;;;;;;;21.78;38.26;98254.28;1785708;78;21184;-19
2021/04/02 06:26:13;;;;;;;16.93;9.73;;;;;;;21.84;38.12;98244.30;1796841;78;21180;-16
2021/04/02 06:28:48;;;;;;;22.87;11.55;;;;;;;21.79;38.16;98250.63;1809015;78;21161;-16
2021/04/02 06:31:21;;;;;;;26.35;10.65;;;;;;;21.79;38.43;98276.56;1754398;78;22526;-16
2021/04/02 06:33:56;;;;;;;29.27;10.98;;;;;;;21.87;38.50;98302.91;1794976;78;21224;-14
2021/04/02 06:36:28;;;;;;;31.05;12.37;;;;;;;21.98;38.80;98332.59;1804075;77;21188;-18
2021/04/02 06:39:03;;;;;;;29.75;12.88;;;;;;;22.10;38.81;98335.88;1812151;78;21631;-15
2021/04/02 06:41:35;;;;;;;31.82;13.05;;;;;;;22.17;38.48;98346.30;1810495;77;21148;-18
2021/04/02 06:44:05;;;;;;;26.25;12.33;;;;;;;22.19;38.24;98356.86;1809888;78;21495;-16
2021/04/02 06:46:38;;;;;;;24.02;12.37;;;;;;;22.17;38.09;98365.05;1806742;77;21167;-18
2021/04/02 06:49:13;;;;;;;27.42;13.13;;;;;;;22.15;38.05;98360.86;1771481;78;21655;-17
2021/04/02 06:51:45;;;;;;;17.57;11.35;;;;;;;22.14;37.87;98368.06;1745679;80;21220;-19
2021/04/02 06:54:16;;;;;;;25.10;13.20;;;;;;;22.12;37.78;98369.20;1750032;80;21674;-15
2021/04/02 06:57:03;;;;;;;17.75;11.85;;;;;;;22.03;37.80;98369.13;1774301;79;21212;-15
2021/04/02 06:59:35;;;;;;;25.82;13.98;;;;;;;21.98;37.85;98370.60;1750413;80;21185;-15
2021/04/02 07:02:05;;;;;;;21.95;11.28;;;;;;;21.94;38.02;98375.91;1795333;77;21125;-16
2021/04/02 07:04:34;;;;;;;24.67;10.88;;;;;;;21.94;38.18;98375.91;1764588;79;22283;-16
2021/04/02 07:07:04;;;;;;;22.77;10.55;;;;;;;22.02;38.26;98375.98;1806756;77;21117;-16
2021/04/02 07:09:37;;;;;;;17.67;10.75;;;;;;;22.15;38.21;98376.43;1805861;78;21176;-15
2021/04/02 07:12:06;;;;;;;22.50;10.05;;;;;;;22.28;38.20;98377.41;1798862;78;21269;-14
2021/04/02 07:14:34;;;;;;;15.25;9.70;;;;;;;22.41;38.12;98384.55;1785592;78;21577;-14
2021/04/02 07:17:01;;;;;;;21.15;9.98;;;;;;;22.53;38.03;98389.66;1785721;78;21110;-14
2021/04/02 07:19:29;;;;;;;16.45;9.83;;;;;;;22.63;37.96;98391.23;1763167;79;21168;-14
2021/04/02 07:21:56;;;;;;;16.00;9.60;;;;;;;22.74;37.86;98403.52;1796806;78;21260;-14
2021/04/02 07:24:24;;;;;;;20.23;9.18;;;;;;;22.84;37.78;98394.03;1806299;78;21212;-17
2021/04/02 07:26:52;;;;;;;17.40;9.00;;;;;;;22.94;37.68;98393.41;1831902;78;21140;-16
2021/04/02 07:29:22;;;;;;;14.78;9.03;;;;;;;23.02;37.62;98392.63;1829346;78;21160;-14
2021/04/02 07:31:50;;;;;;;16.67;8.95;;;;;;;23.10;37.52;98383.79;1807090;78;21159;-14
2021/04/02 07:34:18;;;;;;;23.42;9.98;;;;;;;23.18;37.46;98386.51;1825966;78;22115;-15
2021/04/02 07:36:49;;;;;;;24.75;10.95;;;;;;;23.24;37.14;98388.56;1758502;78;21674;-14
2021/04/02 07:39:20;;;;;;;17.00;10.15;;;;;;;23.15;36.89;98395.73;1810474;78;21183;-16
2021/04/02 07:41:49;;;;;;;17.17;9.23;;;;;;;22.93;36.65;98410.52;1763085;79;21199;-14
2021/04/02 07:44:18;;;;;;;13.40;7.55;;;;;;;22.51;36.70;98420.64;1773979;78;21603;-15
2021/04/02 07:47:09;;;;;;;13.35;7.15;;;;;;;22.01;37.03;98429.22;1800877;78;21260;-14
2021/04/02 07:49:43;;;;;;;13.30;7.95;;;;;;;21.51;37.50;98430.02;1783181;78;21223;-16
2021/04/02 07:52:10;;;;;;;10.97;7.10;;;;;;;21.07;37.98;98431.63;1769562;78;21858;-19
2021/04/02 07:54:41;;;;;;;13.28;7.35;;;;;;;20.71;38.50;98434.10;1777070;78;21590;-16
2021/04/02 07:57:18;;;;;;;13.38;7.25;;;;;;;20.43;38.89;98435.83;1768426;78;21195;-16
2021/04/02 07:59:47;;;;;;;19.65;9.15;;;;;;;20.20;39.29;98438.77;1775267;78;21211;-16
2021/04/02 08:02:17;;;;;;;12.60;7.45;;;;;;;20.03;40.08;98451.83;1777009;78;21220;-16
2021/04/02 08:04:57;;;;;;;18.42;6.78;;;;;;;19.98;40.09;98447.41;1772002;78;21219;-15
2021/04/02 08:07:41;;;;;;;12.07;6.75;;;;;;;19.97;39.98;98449.74;1807961;78;21487;-16
2021/04/02 08:10:14;;;;;;;12.73;6.45;;;;;;;19.93;39.99;98446.98;1786181;79;21809;-15
2021/04/02 08:12:43;;;;;;;11.03;5.87;;;;;;;19.92;39.93;98450.66;1790100;78;21216;-15
2021/04/02 08:15:13;;;;;;;10.95;5.20;;;;;;;19.93;39.74;98453.66;1816672;78;21187;-17
2021/04/02 08:17:40;;;;;;;6.47;4.92;;;;;;;19.94;39.58;98458.49;1796979;78;21175;-15
2021/04/02 08:20:19;;;;;;;6.12;5.25;;;;;;;19.93;39.46;98457.66;1769740;78;21189;-15
2021/04/02 08:22:50;;;;;;;5.20;4.37;;;;;;;19.88;39.36;98461.23;1791405;78;21145;-15
2021/04/02 08:25:19;;;;;;;7.75;4.80;;;;;;;19.83;39.38;98464.31;1785450;79;21217;-16
2021/04/02 08:27:47;;;;;;;7.10;4.72;;;;;;;19.81;39.45;98465.45;1807406;78;21207;-16
2021/04/02 08:30:16;;;;;;;5.80;4.97;;;;;;;19.78;39.34;98473.72;1768095;80;21220;-15
2021/04/02 08:32:46;;;;;;;8.90;5.25;;;;;;;19.67;39.29;98467.49;1766080;79;21149;-18
2021/04/02 08:35:14;;;;;;;10.65;5.22;;;;;;;19.54;39.61;98478.90;1796147;78;21133;-15
2021/04/02 08:37:59;;;;;;;6.37;4.53;;;;;;;19.40;40.01;98475.25;1791546;78;22741;-16
2021/04/02 08:40:27;;;;;;;5.95;4.67;;;;;;;19.31;40.29;98483.58;1800176;78;21702;-18
2021/04/02 08:43:06;;;;;;;7.72;4.33;;;;;;;19.25;40.44;98479.63;1796719;78;21211;-16
2021/04/02 08:45:36;;;;;;;6.58;4.12;;;;;;;19.20;40.35;98489.86;1780953;78;21196;-15
2021/04/02 08:48:06;;;;;;;6.17;4.03;;;;;;;19.08;40.39;98480.23;1780975;78;21985;-19
2021/04/02 08:50:35;;;;;;;6.65;4.12;;;;;;;18.90;40.61;98483.52;1790237;79;21577;-15
2021/04/02 08:53:09;;;;;;;5.62;3.67;;;;;;;18.85;41.07;98487.06;1773110;79;21113;-16
2021/04/02 08:55:45;;;;;;;6.67;3.45;;;;;;;19.05;41.18;98483.19;1771783;79;21180;-15
2021/04/02 08:58:13;;;;;;;4.97;3.25;;;;;;;19.31;41.11;98480.41;1772018;79;21613;-17
2021/04/02 09:00:41;;;;;;;7.87;4.03;;;;;;;19.61;40.85;98473.36;1778692;79;21142;-16
2021/04/02 09:03:09;;;;;;;6.08;3.98;;;;;;;19.88;40.57;98474.58;1776576;78;21203;-18
2021/04/02 09:05:38;;;;;;;9.45;3.67;;;;;;;20.12;40.36;98481.36;1760197;78;21243;-18
2021/04/02 09:08:06;;;;;;;5.72;3.62;;;;;;;20.32;40.09;98485.72;1757298;79;21157;-14
2021/04/02 09:10:34;;;;;;;5.33;3.65;;;;;;;20.53;39.88;98489.59;1776168;78;21129;-14
2021/04/02 09:13:02;;;;;;;5.30;3.50;;;;;;;20.69;39.68;98483.69;1736581;78;21219;-14
2021/04/02 09:15:32;;;;;;;6.60;3.40;;;;;;;20.87;39.48;98497.68;1809727;77;21216;-14
2021/04/02 09:18:28;;;;;;;7.37;3.77;;;;;;;21.00;39.32;98495.55;1794252;78;21184;-14
2021/04/02 09:20:52;;;;;;;11.10;4.30;;;;;;;21.14;39.30;98497.73;1760039;79;21183;-14
2021/04/02 09:23:19;;;;;;;6.30;3.40;;;;;;;21.26;39.24;98502.41;1796346;79;21163;-13
2021/04/02 09:25:50;;;;;;;9.78;3.87;;;;;;;21.37;39.05;98505.42;1758848;79;21207;-14
2021/04/02 09:28:24;;;;;;;6.72;3.80;;;;;;;21.49;38.88;98508.79;1749315;79;21222;-14
2021/04/02 09:31:22;;;;;;;3.25;2.85;;;;;;;21.57;38.78;98497.33;1766534;79;21587;-15
2021/04/02 09:34:03;;;;;;;11.10;7.83;;;;;;;21.58;36.62;98506.55;1734052;79;21159;-16
2021/04/02 09:36:41;;;;;;;10.93;7.62;;;;;;;21.30;36.22;98509.65;1783138;79;21230;-15
2021/04/02 09:39:11;;;;;;;6.58;5.15;;;;;;;21.03;35.77;98508.63;1775477;79;21254;-15
2021/04/02 09:41:54;;;;;;;10.95;5.10;;;;;;;20.85;35.80;98504.50;1779234;79;21210;-19
2021/04/02 09:44:27;;;;;;;7.20;4.85;;;;;;;20.74;35.77;98500.64;1784689;79;21182;-16
2021/04/02 09:47:06;;;;;;;6.65;4.90;;;;;;;20.68;36.35;98502.06;1768785;79;21188;-16
2021/04/02 09:49:36;;;;;;;6.37;4.78;;;;;;;20.72;36.71;98500.78;1774282;79;21195;-15
2021/04/02 09:52:05;;;;;;;9.43;5.22;;;;;;;20.83;36.93;98507.82;1791088;79;21180;-15
2021/04/02 09:54:34;;;;;;;5.12;4.33;;;;;;;20.94;37.19;98504.12;1756658;79;21167;-15
2021/04/02 09:57:06;;;;;;;7.72;4.00;;;;;;;21.04;37.31;98502.27;1763282;79;21185;-15
2021/04/02 09:59:33;;;;;;;6.37;3.98;;;;;;;21.17;37.32;98504.64;1742811;80;21588;-15
2021/04/02 10:02:02;;;;;;;4.70;3.70;;;;;;;21.27;37.37;98504.62;1767629;80;21643;-15
2021/04/02 10:04:30;;;;;;;4.55;3.70;;;;;;;21.34;37.39;98503.03;1732272;81;21203;-15
2021/04/02 10:07:01;;;;;;;4.65;3.58;;;;;;;21.42;37.34;98507.16;1721002;80;21163;-16
2021/04/02 10:09:34;;;;;;;3.60;3.30;;;;;;;21.49;37.42;98506.11;1720676;80;21228;-16
2021/04/02 10:12:02;;;;;;;4.05;3.27;;;;;;;21.56;37.45;98509.88;1762060;80;21152;-15
2021/04/02 10:14:30;;;;;;;3.42;3.12;;;;;;;21.62;37.38;98517.33;1778733;78;21176;-14
2021/04/02 10:16:58;;;;;;;4.15;2.87;;;;;;;21.68;37.45;98518.55;1756351;78;21220;-15
2021/04/02 10:19:25;;;;;;;3.95;2.90;;;;;;;21.73;37.38;98516.27;1766544;80;22018;-15
2021/04/02 10:21:55;;;;;;;2.92;2.60;;;;;;;21.78;37.20;98519.34;1816568;77;22603;-15
2021/04/02 10:24:22;;;;;;;2.33;2.08;;;;;;;21.81;37.18;98518.22;1812875;77;21252;-14
2021/04/02 10:26:49;;;;;;;3.20;2.37;;;;;;;21.82;37.35;98516.73;1740855;80;21650;-14
2021/04/02 10:29:17;;;;;;;5.25;2.40;;;;;;;21.85;37.14;98516.91;1784029;78;21126;-14
2021/04/02 10:31:47;;;;;;;4.33;2.22;;;;;;;21.85;37.40;98519.09;1775512;78;21233;-16
2021/04/02 10:34:14;;;;;;;8.30;2.30;;;;;;;21.90;37.49;98525.34;1752140;80;21192;-14
2021/04/02 10:36:42;;;;;;;4.92;2.00;;;;;;;21.94;37.45;98529.89;1748562;79;21279;-15
2021/04/02 10:39:10;;;;;;;2.00;1.80;;;;;;;21.97;37.25;98522.91;1739736;79;21251;-14
2021/04/02 10:41:40;;;;;;;101.70;77.20;;;;;;;21.98;37.04;98525.94;1774693;79;21219;-14
2021/04/02 10:44:07;;;;;;;286.37;222.82;;;;;;;22.00;36.51;98540.02;1755219;80;23106;-15
2021/04/02 10:46:35;;;;;;;128.68;95.35;;;;;;;21.82;33.92;98538.63;1778853;79;21712;-17
2021/04/02 10:49:04;;;;;;;90.67;66.82;;;;;;;21.40;32.48;98545.27;1768661;79;21222;-14
2021/04/02 10:51:31;;;;;;;61.48;45.55;;;;;;;20.89;32.73;98553.19;1716747;80;21188;-15
2021/04/02 10:54:03;;;;;;;46.92;33.83;;;;;;;20.44;33.00;98544.37;1726005;81;21131;-14
2021/04/02 10:56:32;;;;;;;35.35;26.55;;;;;;;19.99;33.02;98543.89;1782365;79;21252;-14
2021/04/02 10:58:59;;;;;;;26.00;21.33;;;;;;;19.59;33.90;98546.03;1766272;78;21206;-18
2021/04/02 11:01:27;;;;;;;15.83;13.10;;;;;;;19.38;34.29;98551.91;1776238;79;21642;-15
2021/04/02 11:03:57;;;;;;;10.90;9.08;;;;;;;19.27;34.50;98556.84;1781230;79;21219;-15
2021/04/02 11:06:24;;;;;;;9.55;8.18;;;;;;;19.16;34.52;98558.23;1780873;79;21510;-15
2021/04/02 11:08:51;;;;;;;9.18;7.78;;;;;;;19.02;35.00;98556.76;1756577;80;21213;-15
2021/04/02 11:11:19;;;;;;;8.13;5.62;;;;;;;18.97;35.25;98557.64;1738136;80;21485;-15
2021/04/02 11:13:46;;;;;;;4.95;4.55;;;;;;;18.89;35.36;98554.28;1782448;79;21225;-15
2021/04/02 11:16:13;;;;;;;3.17;2.87;;;;;;;18.84;35.61;98561.31;1718481;81;21220;-15
2021/04/02 11:18:45;;;;;;;5.00;2.25;;;;;;;18.68;35.47;98560.91;1772196;79;21188;-17
2021/04/02 11:21:12;;;;;;;4.03;2.27;;;;;;;18.38;36.10;98558.47;1729970;78;21979;-16
2021/04/02 11:23:39;;;;;;;1.50;1.40;;;;;;;18.20;36.77;98568.80;1788633;78;21568;-15
2021/04/02 11:26:07;;;;;;;4.95;1.60;;;;;;;18.16;36.98;98574.02;1767304;78;21166;-15
2021/04/02 11:28:36;;;;;;;4.30;1.42;;;;;;;18.05;37.06;98568.22;1756999;78;21255;-18
2021/04/02 11:31:03;;;;;;;2.62;1.00;;;;;;;17.99;37.16;98563.41;1751249;78;21247;-15
2021/04/02 11:33:31;;;;;;;2.52;0.72;;;;;;;17.92;36.72;98565.72;1787311;79;21201;-15
2021/04/02 11:36:00;;;;;;;1.35;1.00;;;;;;;17.81;36.92;98570.52;1779796;79;21212;-15
2021/04/02 11:38:29;;;;;;;0.70;0.70;;;;;;;17.72;36.82;98571.27;1776228;78;21240;-16
2021/04/02 11:40:58;;;;;;;4.20;0.95;;;;;;;17.53;36.31;98585.64;1765566;77;21623;-15
2021/04/02 11:43:39;;;;;;;3.80;1.10;;;;;;;17.19;37.44;98582.94;1786439;78;21745;-17
2021/04/02 11:46:21;;;;;;;3.83;1.30;;;;;;;17.25;38.40;98581.98;1808627;78;21707;-17